createdAt,value
2023-04-06T00:00:01.914Z,0.68
2023-04-06T00:15:01.848Z,0.82
2023-04-06T00:30:02.243Z,0.75
2023-04-06T00:45:01.712Z,0.84
2023-04-06T01:00:02.077Z,0.8
2023-04-06T01:15:01.972Z,1.1
2023-04-06T01:30:02.206Z,1.25
2023-04-06T01:45:01.635Z,1.15
2023-04-06T02:00:02.134Z,0.87
2023-04-06T02:15:03.073Z,0.34
2023-04-06T02:30:02.222Z,0.46
2023-04-06T02:45:01.840Z,0.49
2023-04-06T03:00:02.228Z,0.33
2023-04-06T03:15:01.748Z,0.47
2023-04-06T03:30:02.318Z,0.5
2023-04-06T03:45:01.453Z,0.77
2023-04-06T04:00:02.336Z,0.96
2023-04-06T04:15:01.790Z,0.86
2023-04-06T04:30:02.382Z,0.96
2023-04-06T04:45:01.496Z,0.96
2023-04-06T05:00:02.488Z,0.96
2023-04-06T05:15:01.826Z,0.84
2023-04-06T05:30:02.583Z,0.96
2023-04-06T05:45:01.622Z,1.26
2023-04-06T06:00:02.598Z,1.7
2023-04-06T06:15:02.023Z,2.16
2023-04-06T06:30:01.379Z,2.71
2023-04-06T06:45:01.931Z,3.41
2023-04-06T07:00:02.732Z,5.42
2023-04-06T07:15:01.463Z,5
2023-04-06T07:30:01.747Z,6.55
2023-04-06T07:45:02.035Z,6.55
2023-04-06T08:00:02.546Z,6.55
2023-04-06T08:15:03.021Z,6.55
2023-04-06T08:30:01.595Z,6.55
2023-04-06T08:45:02.201Z,13.92
2023-04-06T09:00:01.269Z,13.57
2023-04-06T09:15:02.901Z,13.73
2023-04-06T09:30:01.537Z,13.73
2023-04-06T09:45:01.992Z,13.73
2023-04-06T10:00:02.416Z,14.46
2023-04-06T10:15:02.318Z,19.5
2023-04-06T10:30:01.687Z,19.5
2023-04-06T10:45:02.685Z,19.5
2023-04-06T11:00:01.278Z,19.5
2023-04-06T11:15:02.148Z,19.5
2023-04-06T11:30:02.082Z,27.67
2023-04-06T11:45:02.076Z,25.52
2023-04-06T12:00:03.140Z,22.72
2023-04-06T12:15:03.492Z,18.9
2023-04-06T12:30:01.604Z,24.3
2023-04-06T12:45:02.646Z,22.79
2023-04-06T13:00:02.548Z,22.79
2023-04-06T13:15:03.009Z,22.79
2023-04-06T13:30:02.224Z,22.79
2023-04-06T13:45:01.903Z,22.79
2023-04-06T14:00:03.890Z,22.79
2023-04-06T14:15:02.939Z,22.79
2023-04-06T14:30:01.367Z,22.79
2023-04-06T14:45:02.115Z,22.79
2023-04-06T15:00:02.499Z,22.79
2023-04-06T15:15:01.488Z,22.79
2023-04-06T15:30:02.652Z,13.7
2023-04-06T15:45:02.743Z,12.81
2023-04-06T16:00:01.835Z,12.81
2023-04-06T16:15:01.906Z,12.81
2023-04-06T16:45:02.830Z,12.81
2023-04-06T17:00:01.605Z,12.81
2023-04-06T17:15:01.814Z,12.81
2023-04-06T17:30:02.387Z,12.81
2023-04-06T17:45:01.417Z,12.81
2023-04-06T18:00:02.698Z,12.81
2023-04-06T18:15:02.408Z,12.81
2023-04-06T18:30:01.531Z,12.81
2023-04-06T18:45:01.825Z,12.81
2023-04-06T19:00:02.016Z,12.81
2023-04-06T19:15:03.017Z,4.92
2023-04-06T19:30:02.143Z,4.86
2023-04-06T19:45:02.099Z,4.44
2023-04-06T20:00:02.638Z,4
2023-04-06T20:15:01.935Z,3.92
2023-04-06T20:30:02.100Z,3.48
2023-04-06T20:45:01.605Z,3.78
2023-04-06T21:00:02.192Z,3.48
2023-04-06T21:15:03.096Z,3.52
2023-04-06T21:30:02.220Z,3.44
2023-04-06T21:45:01.909Z,3.4
2023-04-06T22:00:02.305Z,3.2
2023-04-06T22:15:02.155Z,3.14
2023-04-06T22:30:02.273Z,3.2
2023-04-06T22:45:01.684Z,3.27
2023-04-06T23:00:02.280Z,3.15
2023-04-06T23:15:01.655Z,3.21
2023-04-06T23:30:02.347Z,3.56
2023-04-06T23:45:01.476Z,3.4
